Time;durP1;ratioP1;P1;durP2;ratioP2;P2;SDS_P1;SDS_P2;PMS_P1;PMS_P2;Temp;Humidity;BMP_temperature;BMP_pressure;BME280_temperature;BME280_humidity;BME280_pressure;Samples;Min_cycle;Max_cycle;Signal;HPM_P1;HPM_P2
2022/01/06 00:00:38;;;;;;;10.20;2.13;;;2.60;99.90;;;;;;5043076;28;20450;-68
2022/01/06 00:03:04;;;;;;;12.95;2.13;;;2.60;99.90;;;;;;5034959;28;20123;-68
2022/01/06 00:05:30;;;;;;;12.80;2.20;;;2.50;99.90;;;;;;5013825;28;20045;-67
2022/01/06 00:07:55;;;;;;;12.00;2.20;;;2.30;99.90;;;;;;5031955;28;20549;-68
2022/01/06 00:10:21;;;;;;;15.68;2.30;;;2.40;99.90;;;;;;5038561;28;20037;-67
2022/01/06 00:13:06;;;;;;;11.93;2.47;;;2.40;99.90;;;;;;5028977;28;20080;-67
2022/01/06 00:15:43;;;;;;;13.52;2.30;;;2.50;99.90;;;;;;5030712;28;20386;-67
2022/01/06 00:18:17;;;;;;;9.63;1.92;;;2.40;99.90;;;;;;5045137;28;20060;-67
2022/01/06 00:23:39;;;;;;;11.45;2.00;;;2.20;99.90;;;;;;5039452;28;20146;-67
2022/01/06 00:26:06;;;;;;;14.50;3.00;;;2.40;99.90;;;;;;5022720;28;20037;-68
2022/01/06 00:28:32;;;;;;;7.93;1.88;;;2.30;99.90;;;;;;5043492;28;20446;-68
2022/01/06 00:30:58;;;;;;;7.93;1.65;;;2.20;99.90;;;;;;5031726;28;20040;-68
2022/01/06 00:33:24;;;;;;;11.48;1.92;;;2.30;99.90;;;;;;5051667;28;20057;-67
2022/01/06 00:35:50;;;;;;;18.15;2.40;;;2.20;99.90;;;;;;5048919;28;20111;-67
2022/01/06 00:38:16;;;;;;;16.10;2.25;;;2.10;99.90;;;;;;5050180;28;20462;-67
2022/01/06 00:40:41;;;;;;;13.02;1.95;;;2.30;99.90;;;;;;5041996;28;20114;-67
2022/01/06 00:43:08;;;;;;;10.85;1.90;;;2.10;99.90;;;;;;5033125;28;20140;-67
2022/01/06 00:45:35;;;;;;;16.25;2.60;;;2.30;99.90;;;;;;5033382;28;20514;-67
2022/01/06 00:48:01;;;;;;;13.85;2.30;;;2.20;99.90;;;;;;5015417;28;20072;-68
2022/01/06 00:50:27;;;;;;;13.95;1.80;;;2.50;99.90;;;;;;5035325;28;20068;-66
2022/01/06 00:52:52;;;;;;;12.15;2.22;;;2.30;99.90;;;;;;5047174;28;20428;-67
2022/01/06 00:55:18;;;;;;;14.90;2.88;;;2.30;99.90;;;;;;5023472;28;20585;-67
2022/01/06 00:57:44;;;;;;;7.55;2.15;;;2.60;99.90;;;;;;5033823;28;20048;-67
2022/01/06 01:00:10;;;;;;;11.18;2.33;;;2.60;99.90;;;;;;5046610;28;20083;-67
2022/01/06 01:02:36;;;;;;;11.10;2.22;;;2.30;99.90;;;;;;5041140;28;20063;-67
2022/01/06 01:05:02;;;;;;;20.23;2.10;;;2.20;99.90;;;;;;5050071;28;20045;-67
2022/01/06 01:07:28;;;;;;;18.65;2.70;;;2.40;99.90;;;;;;5053848;28;20040;-67
2022/01/06 01:09:53;;;;;;;10.07;2.42;;;2.00;99.90;;;;;;5026851;28;20091;-67
2022/01/06 01:12:19;;;;;;;12.70;2.05;;;1.90;99.90;;;;;;5032120;28;20499;-67
2022/01/06 01:14:58;;;;;;;9.80;2.50;;;1.90;99.90;;;;;;5040269;28;20037;-67
2022/01/06 01:17:26;;;;;;;15.70;2.65;;;1.80;99.90;;;;;;5038855;28;20131;-67
2022/01/06 01:19:53;;;;;;;14.18;2.42;;;1.70;99.90;;;;;;5031573;28;20052;-67
2022/01/06 01:22:18;;;;;;;10.98;1.75;;;1.90;99.90;;;;;;5054030;28;20033;-67
2022/01/06 01:24:44;;;;;;;17.33;1.92;;;1.90;99.90;;;;;;5053368;28;20483;-67
2022/01/06 01:27:09;;;;;;;12.32;1.92;;;2.10;99.90;;;;;;5048331;28;20116;-67
2022/01/06 01:29:44;;;;;;;9.75;1.42;;;1.50;99.90;;;;;;5035267;28;20071;-67
2022/01/06 01:32:10;;;;;;;10.48;1.80;;;2.00;99.90;;;;;;5040703;28;20071;-67
2022/01/06 01:34:38;;;;;;;12.65;1.38;;;1.70;99.90;;;;;;5041159;28;20041;-67
2022/01/06 01:37:04;;;;;;;15.43;1.77;;;1.90;99.90;;;;;;5044757;28;20061;-68
2022/01/06 01:39:29;;;;;;;6.95;1.38;;;1.40;99.90;;;;;;5049011;28;20385;-67
2022/01/06 01:41:55;;;;;;;12.52;2.15;;;1.60;99.90;;;;;;5029614;28;20057;-67
2022/01/06 01:44:21;;;;;;;5.28;1.35;;;1.40;99.90;;;;;;5029887;28;20351;-67
2022/01/06 01:46:59;;;;;;;13.90;1.67;;;1.50;99.90;;;;;;5049219;28;20040;-67
2022/01/06 01:51:51;;;;;;;9.57;1.95;;;1.60;99.90;;;;;;5039498;28;20045;-67
2022/01/06 01:54:18;;;;;;;5.63;1.38;;;1.20;99.90;;;;;;5048497;28;20059;-67
2022/01/06 01:56:44;;;;;;;5.10;1.65;;;1.30;99.90;;;;;;5037093;28;20041;-68
2022/01/06 01:59:09;;;;;;;7.43;1.30;;;1.60;99.90;;;;;;5034154;28;20495;-66
2022/01/06 02:01:35;;;;;;;9.40;1.65;;;1.50;99.90;;;;;;5015103;28;20049;-67
2022/01/06 02:04:01;;;;;;;10.13;1.75;;;1.50;99.90;;;;;;5043975;28;20034;-67
2022/01/06 02:06:27;;;;;;;8.82;1.35;;;1.40;99.90;;;;;;5019382;28;20333;-67
2022/01/06 02:08:54;;;;;;;9.75;2.00;;;1.40;99.90;;;;;;5049744;28;20049;-67
2022/01/06 02:11:20;;;;;;;5.68;1.33;;;1.40;99.90;;;;;;5030404;28;20144;-67
2022/01/06 02:13:48;;;;;;;12.85;1.55;;;1.00;99.90;;;;;;5048796;28;20045;-67
2022/01/06 02:16:18;;;;;;;12.70;1.58;;;1.00;99.90;;;;;;5048964;28;20122;-67
2022/01/06 02:18:43;;;;;;;9.63;1.60;;;1.30;99.90;;;;;;5032977;28;20057;-68
2022/01/06 02:21:09;;;;;;;7.75;1.35;;;1.00;99.90;;;;;;5031724;28;20051;-67
2022/01/06 02:23:34;;;;;;;10.85;1.90;;;0.90;99.90;;;;;;5025007;28;20030;-68
2022/01/06 02:26:00;;;;;;;13.73;1.98;;;0.90;99.90;;;;;;5035159;28;20033;-68
2022/01/06 02:28:25;;;;;;;9.30;1.80;;;0.90;99.90;;;;;;5042045;28;20033;-68
2022/01/06 02:30:51;;;;;;;15.25;1.98;;;1.30;99.90;;;;;;5044275;28;20040;-68
2022/01/06 02:33:21;;;;;;;11.95;2.15;;;0.90;99.90;;;;;;5040343;28;20080;-68
2022/01/06 02:35:48;;;;;;;13.90;2.42;;;0.90;99.90;;;;;;5045037;28;20045;-68
2022/01/06 02:38:14;;;;;;;9.45;1.90;;;0.90;99.90;;;;;;5031240;28;20124;-68
2022/01/06 02:40:39;;;;;;;8.00;2.15;;;1.20;99.90;;;;;;5023145;28;20034;-68
2022/01/06 02:43:07;;;;;;;8.00;1.35;;;0.80;99.90;;;;;;5033103;28;20488;-68
2022/01/06 02:45:33;;;;;;;11.13;2.47;;;0.90;99.90;;;;;;5045680;28;20028;-68
2022/01/06 02:48:08;;;;;;;16.00;2.72;;;1.30;99.90;;;;;;5039130;28;20030;-68
2022/01/06 02:50:40;;;;;;;11.20;2.25;;;1.20;99.90;;;;;;5027709;28;20041;-67
2022/01/06 02:53:07;;;;;;;11.35;2.28;;;1.00;99.90;;;;;;5045493;28;20091;-67
2022/01/06 02:55:34;;;;;;;11.27;2.55;;;1.40;99.90;;;;;;5034505;28;20053;-68
2022/01/06 02:57:59;;;;;;;11.20;1.85;;;1.40;99.90;;;;;;5022705;28;20041;-68
2022/01/06 03:00:25;;;;;;;8.85;1.70;;;1.20;99.90;;;;;;5033742;28;20818;-68
2022/01/06 03:02:50;;;;;;;5.00;1.52;;;1.20;99.90;;;;;;5034688;28;20041;-68
2022/01/06 03:05:17;;;;;;;7.85;1.23;;;1.10;99.90;;;;;;5039821;28;20614;-67
2022/01/06 03:07:43;;;;;;;7.65;1.40;;;1.40;99.90;;;;;;5040260;28;20159;-68
2022/01/06 03:10:12;;;;;;;11.73;1.90;;;1.20;99.90;;;;;;5046821;28;20056;-67
2022/01/06 03:12:41;;;;;;;6.93;1.25;;;1.10;99.90;;;;;;5042135;28;20049;-68
2022/01/06 03:15:18;;;;;;;11.52;1.75;;;0.90;99.90;;;;;;5013517;28;20139;-68
2022/01/06 03:17:47;;;;;;;10.40;2.20;;;0.80;99.90;;;;;;5027645;28;20049;-67
2022/01/06 03:20:15;;;;;;;13.75;1.92;;;1.10;99.90;;;;;;5037805;28;20102;-67
2022/01/06 03:22:41;;;;;;;12.63;1.50;;;0.90;99.90;;;;;;5041489;28;20063;-67
2022/01/06 03:25:09;;;;;;;10.18;1.75;;;1.20;99.90;;;;;;5043210;28;20083;-68
2022/01/06 03:27:35;;;;;;;12.77;1.73;;;1.30;99.90;;;;;;5031325;28;20473;-67
2022/01/06 03:30:01;;;;;;;13.00;2.05;;;1.30;99.90;;;;;;5020813;28;20044;-67
2022/01/06 03:32:27;;;;;;;14.25;2.25;;;1.30;99.90;;;;;;5039494;28;20540;-68
2022/01/06 03:34:53;;;;;;;12.95;3.40;;;1.10;99.90;;;;;;5025320;28;20143;-68
2022/01/06 03:37:18;;;;;;;14.52;2.38;;;1.30;99.90;;;;;;5040354;28;20477;-68
2022/01/06 03:39:44;;;;;;;13.25;1.75;;;1.40;99.90;;;;;;5046845;28;20056;-68
2022/01/06 03:42:11;;;;;;;9.07;1.90;;;1.10;99.90;;;;;;5015993;28;20164;-67
2022/01/06 03:44:37;;;;;;;8.35;1.35;;;1.10;99.90;;;;;;5014746;28;20032;-67
2022/01/06 03:47:03;;;;;;;12.57;1.90;;;0.90;99.90;;;;;;5026876;28;20361;-68
2022/01/06 03:49:29;;;;;;;11.82;1.70;;;0.90;99.90;;;;;;5035315;28;20551;-68
2022/01/06 03:51:55;;;;;;;10.45;1.90;;;1.10;99.90;;;;;;5027219;28;20087;-67
2022/01/06 03:54:20;;;;;;;11.52;1.90;;;1.10;99.90;;;;;;5042130;28;20045;-67
2022/01/06 03:56:48;;;;;;;9.77;2.30;;;0.90;99.90;;;;;;5032770;28;20113;-68
2022/01/06 03:59:16;;;;;;;10.57;2.13;;;1.00;99.90;;;;;;5025863;28;20049;-68
2022/01/06 04:01:42;;;;;;;10.40;1.85;;;0.70;99.90;;;;;;5027384;28;20041;-68
2022/01/06 04:04:08;;;;;;;15.45;2.10;;;0.70;99.90;;;;;;5026564;28;20653;-68
2022/01/06 04:06:33;;;;;;;12.77;2.10;;;0.60;99.90;;;;;;5047518;28;20044;-68
2022/01/06 04:08:59;;;;;;;15.00;2.75;;;0.70;99.90;;;;;;5034213;28;20040;-68
2022/01/06 04:11:24;;;;;;;5.78;1.75;;;0.50;99.90;;;;;;5034517;28;20106;-68
2022/01/06 04:13:50;;;;;;;14.13;2.17;;;0.50;99.90;;;;;;5027069;28;20045;-68
2022/01/06 04:16:17;;;;;;;10.75;2.15;;;0.50;99.90;;;;;;5026543;28;20099;-68
2022/01/06 04:18:43;;;;;;;14.38;1.50;;;0.70;99.90;;;;;;5033606;28;20063;-68
2022/01/06 04:21:09;;;;;;;14.95;2.15;;;0.60;99.90;;;;;;5046473;28;20037;-68
2022/01/06 04:23:35;;;;;;;10.57;1.77;;;0.50;99.90;;;;;;5019393;28;20095;-68
2022/01/06 04:26:01;;;;;;;9.68;1.67;;;0.40;99.90;;;;;;5020903;28;20530;-68
2022/01/06 04:28:27;;;;;;;10.57;1.73;;;0.20;99.90;;;;;;5020387;28;20112;-68
2022/01/06 04:30:53;;;;;;;9.82;1.85;;;0.40;99.90;;;;;;5043714;28;20128;-68
2022/01/06 04:33:19;;;;;;;10.43;2.30;;;0.40;99.90;;;;;;5046980;28;20044;-68
2022/01/06 04:35:44;;;;;;;11.98;1.70;;;0.20;99.90;;;;;;5028070;28;20410;-68
2022/01/06 04:38:10;;;;;;;11.18;1.83;;;0.20;99.90;;;;;;5032497;28;20106;-68
2022/01/06 04:40:36;;;;;;;11.18;1.80;;;0.10;99.90;;;;;;5047102;28;20091;-67
2022/01/06 04:43:02;;;;;;;11.27;2.63;;;0.20;99.90;;;;;;5045827;28;20055;-68
2022/01/06 04:45:27;;;;;;;9.38;1.90;;;0.20;99.90;;;;;;5046401;28;20049;-68
2022/01/06 04:47:53;;;;;;;7.88;2.28;;;0.20;99.90;;;;;;5022204;28;20397;-68
2022/01/06 04:50:19;;;;;;;14.23;1.95;;;0.20;99.90;;;;;;5030100;28;20072;-68
2022/01/06 04:52:44;;;;;;;15.82;2.00;;;0.20;99.90;;;;;;5033831;28;20101;-68
2022/01/06 04:55:10;;;;;;;8.32;1.35;;;0.30;99.90;;;;;;5012043;28;20392;-67
2022/01/06 04:57:36;;;;;;;14.68;2.53;;;0.10;99.90;;;;;;5030295;28;20427;-68
2022/01/06 05:00:04;;;;;;;11.20;2.05;;;0.20;99.90;;;;;;5040862;28;20045;-68
2022/01/06 05:02:29;;;;;;;22.20;3.00;;;0.20;99.90;;;;;;5017725;28;20065;-68
2022/01/06 05:04:55;;;;;;;9.02;1.75;;;0.50;99.90;;;;;;5026962;28;20071;-68
2022/01/06 05:07:20;;;;;;;17.60;1.90;;;0.20;99.90;;;;;;5012662;28;20045;-68
2022/01/06 05:09:46;;;;;;;12.05;2.50;;;0.50;99.90;;;;;;5035179;28;20053;-68
2022/01/06 05:12:11;;;;;;;20.30;2.70;;;0.20;99.90;;;;;;5034980;28;20119;-68
2022/01/06 05:14:37;;;;;;;12.05;1.85;;;0.50;99.90;;;;;;5034757;28;20036;-68
2022/01/06 05:17:03;;;;;;;12.35;1.48;;;0.30;99.90;;;;;;5045459;28;20465;-68
2022/01/06 05:19:29;;;;;;;19.50;3.75;;;0.40;99.90;;;;;;5030404;28;20060;-68
2022/01/06 05:21:55;;;;;;;15.55;2.65;;;0.50;99.90;;;;;;5040004;28;20060;-68
2022/01/06 05:24:23;;;;;;;9.02;2.20;;;0.60;99.90;;;;;;5038302;28;20048;-68
2022/01/06 05:26:49;;;;;;;12.13;2.58;;;0.40;99.90;;;;;;5040286;28;20040;-68
2022/01/06 05:29:16;;;;;;;11.55;2.38;;;0.60;99.90;;;;;;5028357;28;20120;-68
2022/01/06 05:31:41;;;;;;;11.80;2.13;;;0.60;99.90;;;;;;5030547;28;20073;-68
2022/01/06 05:34:07;;;;;;;14.18;2.42;;;0.60;99.90;;;;;;5024142;28;20091;-68
2022/01/06 05:36:34;;;;;;;9.65;1.63;;;0.30;99.90;;;;;;5031765;28;20072;-68
2022/01/06 05:39:00;;;;;;;15.20;2.38;;;0.50;99.90;;;;;;5046563;28;20215;-68
2022/01/06 05:41:26;;;;;;;16.92;2.17;;;0.50;99.90;;;;;;5049631;28;20196;-68
2022/01/06 05:43:52;;;;;;;14.75;2.25;;;0.30;99.90;;;;;;5044401;28;20077;-68
2022/01/06 05:46:18;;;;;;;12.90;2.22;;;0.30;99.90;;;;;;5032907;28;20044;-69
2022/01/06 05:48:44;;;;;;;18.20;2.80;;;0.50;99.90;;;;;;5049719;28;20049;-67
2022/01/06 05:51:10;;;;;;;13.07;2.30;;;0.50;99.90;;;;;;5037878;28;20473;-67
2022/01/06 05:53:36;;;;;;;10.38;2.10;;;0.40;99.90;;;;;;5024519;28;20033;-68
2022/01/06 05:56:01;;;;;;;17.67;2.67;;;0.40;99.90;;;;;;5019351;28;20731;-68
2022/01/06 05:58:27;;;;;;;16.20;2.03;;;0.50;99.90;;;;;;5047996;28;20745;-68
2022/01/06 06:00:52;;;;;;;12.50;2.05;;;0.50;99.90;;;;;;5044136;28;20049;-68
2022/01/06 06:03:18;;;;;;;8.00;2.22;;;0.30;99.90;;;;;;5033448;28;20394;-68
2022/01/06 06:05:44;;;;;;;11.00;2.30;;;0.50;99.90;;;;;;5030499;28;20037;-68
2022/01/06 06:08:10;;;;;;;16.60;2.55;;;0.40;99.90;;;;;;5033384;28;20072;-67
2022/01/06 06:10:36;;;;;;;7.03;1.55;;;0.40;99.90;;;;;;5045255;28;20048;-67
2022/01/06 06:13:02;;;;;;;9.23;1.70;;;0.40;99.90;;;;;;5042418;28;20406;-67
2022/01/06 06:15:29;;;;;;;12.75;3.55;;;0.40;99.90;;;;;;5029399;28;20083;-67
2022/01/06 06:17:55;;;;;;;10.85;1.70;;;0.40;99.90;;;;;;5031987;28;20054;-67
2022/01/06 06:20:20;;;;;;;11.93;2.30;;;0.20;99.90;;;;;;5028727;28;20118;-68
2022/01/06 06:22:46;;;;;;;11.25;1.98;;;0.20;99.90;;;;;;5047420;28;20162;-67
2022/01/06 06:25:11;;;;;;;10.63;2.13;;;0.40;99.90;;;;;;5030353;28;20432;-68
2022/01/06 06:27:37;;;;;;;8.10;1.95;;;0.20;99.90;;;;;;5042574;28;20123;-67
2022/01/06 06:30:04;;;;;;;12.43;2.90;;;0.30;99.90;;;;;;5049977;28;20149;-68
2022/01/06 06:32:33;;;;;;;13.05;1.88;;;0.20;99.90;;;;;;5013408;28;20129;-67
2022/01/06 06:34:59;;;;;;;10.48;1.95;;;0.20;99.90;;;;;;5027047;28;20068;-67
2022/01/06 06:37:25;;;;;;;15.25;2.67;;;0.30;99.90;;;;;;5038999;28;20071;-67
2022/01/06 06:39:50;;;;;;;9.77;1.85;;;0.30;99.90;;;;;;5045922;28;20067;-68
2022/01/06 06:42:16;;;;;;;17.65;1.90;;;0.10;99.90;;;;;;5038910;28;20045;-67
2022/01/06 06:44:41;;;;;;;15.68;1.92;;;0.30;99.90;;;;;;5032244;28;20033;-67
2022/01/06 06:47:07;;;;;;;16.60;2.53;;;0.30;99.90;;;;;;5030000;28;20052;-67
2022/01/06 06:49:32;;;;;;;16.08;2.15;;;0.10;99.90;;;;;;5048159;28;20037;-67
2022/01/06 06:51:58;;;;;;;14.40;2.20;;;0.20;99.90;;;;;;5046759;28;20056;-67
2022/01/06 06:54:23;;;;;;;13.43;2.80;;;0.20;99.90;;;;;;5048966;28;20036;-68
2022/01/06 06:56:49;;;;;;;9.20;2.10;;;0.10;99.90;;;;;;5021858;28;20037;-68
2022/01/06 06:59:14;;;;;;;12.57;1.63;;;0.20;99.90;;;;;;5031268;28;20045;-67
2022/01/06 07:01:40;;;;;;;9.82;2.38;;;0.10;99.90;;;;;;5038317;28;20474;-68
2022/01/06 07:04:05;;;;;;;15.07;2.30;;;0.00;99.90;;;;;;5038950;28;20187;-68
2022/01/06 07:06:31;;;;;;;15.40;1.77;;;0.10;99.90;;;;;;5048640;28;20357;-68
2022/01/06 07:08:56;;;;;;;12.93;2.25;;;0.00;99.90;;;;;;5045394;28;20035;-67
2022/01/06 07:11:23;;;;;;;17.42;2.10;;;-0.10;99.90;;;;;;5043021;28;20119;-67
2022/01/06 07:13:48;;;;;;;14.63;2.20;;;0.00;99.90;;;;;;5028417;28;20929;-67
2022/01/06 07:16:14;;;;;;;8.50;1.65;;;0.00;99.90;;;;;;5037233;28;20080;-67
2022/01/06 07:18:39;;;;;;;11.30;2.70;;;0.00;99.90;;;;;;5044300;28;20060;-67
2022/01/06 07:21:05;;;;;;;10.95;2.22;;;0.10;99.90;;;;;;5038813;28;20048;-67
2022/01/06 07:23:30;;;;;;;12.98;2.28;;;0.10;99.90;;;;;;5015771;28;20045;-67
2022/01/06 07:25:56;;;;;;;12.95;2.22;;;0.10;99.90;;;;;;5045680;28;20542;-67
2022/01/06 07:28:21;;;;;;;7.95;1.50;;;0.20;99.90;;;;;;5028507;28;20040;-67
2022/01/06 07:30:47;;;;;;;10.88;2.28;;;0.20;99.90;;;;;;5043093;28;20037;-67
2022/01/06 07:33:13;;;;;;;17.58;1.83;;;0.10;99.90;;;;;;5035926;28;20049;-67
2022/01/06 07:35:38;;;;;;;11.43;2.05;;;0.10;99.90;;;;;;5030229;28;20139;-67
2022/01/06 07:38:04;;;;;;;11.68;1.90;;;0.10;99.90;;;;;;5027551;28;20460;-67
2022/01/06 07:40:29;;;;;;;15.57;2.42;;;0.00;99.90;;;;;;5064804;28;20044;-67
2022/01/06 07:42:55;;;;;;;12.77;2.35;;;0.10;99.90;;;;;;5041681;28;20393;-67
2022/01/06 07:45:20;;;;;;;12.40;2.17;;;0.00;99.90;;;;;;5028405;28;20052;-67
2022/01/06 07:47:57;;;;;;;19.40;2.80;;;0.00;99.90;;;;;;5037133;28;20045;-67
2022/01/06 07:50:31;;;;;;;13.40;2.20;;;0.00;99.90;;;;;;5056100;28;20056;-67
2022/01/06 07:52:57;;;;;;;10.35;3.22;;;0.10;99.90;;;;;;5053918;28;20095;-67
2022/01/06 07:55:23;;;;;;;16.77;2.45;;;0.10;99.90;;;;;;5062278;28;20049;-67
2022/01/06 07:57:50;;;;;;;11.40;2.55;;;0.20;99.90;;;;;;5045879;28;20059;-67
2022/01/06 08:00:17;;;;;;;9.75;2.17;;;0.20;99.90;;;;;;5047611;28;20051;-67
2022/01/06 08:02:44;;;;;;;15.27;2.55;;;0.10;99.90;;;;;;5040959;28;20084;-67
2022/01/06 08:05:12;;;;;;;15.35;2.40;;;0.10;99.90;;;;;;5037336;28;20037;-67
2022/01/06 08:07:37;;;;;;;14.73;2.47;;;0.20;99.90;;;;;;5048199;28;20083;-67
2022/01/06 08:10:04;;;;;;;22.27;2.75;;;0.30;99.90;;;;;;5034429;28;20442;-67
2022/01/06 08:12:29;;;;;;;13.02;2.20;;;0.30;99.90;;;;;;5046580;28;20055;-67
2022/01/06 08:14:55;;;;;;;14.45;2.70;;;0.30;99.90;;;;;;5047041;28;20032;-67
2022/01/06 08:17:21;;;;;;;11.75;2.55;;;0.30;99.90;;;;;;5046827;28;20186;-67
2022/01/06 08:19:47;;;;;;;18.67;2.00;;;0.30;99.90;;;;;;5046892;28;20087;-68
2022/01/06 08:22:13;;;;;;;13.32;2.30;;;0.40;99.90;;;;;;5045381;28;20061;-67
2022/01/06 08:24:39;;;;;;;20.70;2.08;;;0.50;99.90;;;;;;5050273;28;20029;-66
2022/01/06 08:27:08;;;;;;;11.90;2.50;;;0.40;99.90;;;;;;5029539;28;20045;-67
2022/01/06 08:29:38;;;;;;;17.90;2.00;;;0.50;99.90;;;;;;5017071;28;20223;-67
2022/01/06 08:32:04;;;;;;;13.10;2.13;;;0.50;99.90;;;;;;5031397;28;20344;-66
2022/01/06 08:34:30;;;;;;;18.58;2.53;;;0.60;99.90;;;;;;5040778;28;20303;-67
2022/01/06 08:36:55;;;;;;;15.15;3.95;;;0.50;99.90;;;;;;5026293;28;20037;-67
2022/01/06 08:39:21;;;;;;;15.35;3.00;;;0.50;99.90;;;;;;5042751;28;20132;-67
2022/01/06 08:41:48;;;;;;;13.75;2.70;;;0.50;99.90;;;;;;5029708;28;20151;-67
2022/01/06 08:44:14;;;;;;;17.17;2.72;;;0.50;99.90;;;;;;5036132;28;20631;-67
2022/01/06 08:46:40;;;;;;;13.75;2.30;;;0.60;99.90;;;;;;5040945;28;20163;-67
2022/01/06 08:49:06;;;;;;;22.48;2.80;;;0.60;99.90;;;;;;5033957;28;20425;-67
2022/01/06 08:51:32;;;;;;;14.50;2.20;;;0.60;99.90;;;;;;5018228;28;20056;-67
2022/01/06 08:53:58;;;;;;;14.27;2.42;;;0.70;99.90;;;;;;5014439;28;20056;-67
2022/01/06 08:56:24;;;;;;;9.00;2.38;;;0.70;99.90;;;;;;5038077;28;20037;-67
2022/01/06 08:58:49;;;;;;;16.95;2.85;;;0.80;99.90;;;;;;5024239;28;20041;-67
2022/01/06 09:01:15;;;;;;;12.50;3.13;;;0.80;99.90;;;;;;5050439;28;20033;-66
2022/01/06 09:03:41;;;;;;;22.30;3.10;;;0.80;99.90;;;;;;5043698;28;20569;-66
2022/01/06 09:06:07;;;;;;;11.90;3.25;;;0.80;99.90;;;;;;5036145;28;20037;-66
2022/01/06 09:08:32;;;;;;;18.08;4.22;;;0.90;99.90;;;;;;5031254;28;20052;-66
2022/01/06 09:10:58;;;;;;;14.32;2.80;;;1.00;99.90;;;;;;5044533;28;20071;-66
2022/01/06 09:13:23;;;;;;;15.55;2.78;;;1.00;99.90;;;;;;5051310;28;20461;-65
2022/01/06 09:15:49;;;;;;;21.55;3.55;;;1.10;99.90;;;;;;5043733;28;20349;-65
2022/01/06 09:18:14;;;;;;;16.40;2.40;;;1.10;99.90;;;;;;5032678;28;20029;-65
2022/01/06 09:20:40;;;;;;;22.75;3.03;;;1.20;99.90;;;;;;5029440;28;20052;-65
2022/01/06 09:23:06;;;;;;;20.98;2.97;;;1.20;99.90;;;;;;5050825;28;20623;-67
2022/01/06 09:25:32;;;;;;;19.73;2.85;;;1.20;99.90;;;;;;5041128;28;20091;-65
2022/01/06 09:27:57;;;;;;;19.13;3.53;;;1.30;99.90;;;;;;5028539;28;20393;-65
2022/01/06 09:30:26;;;;;;;14.20;2.88;;;1.30;99.90;;;;;;5030758;28;20670;-66
2022/01/06 09:32:53;;;;;;;16.45;3.03;;;1.30;99.90;;;;;;5031118;28;20053;-66
2022/01/06 09:35:20;;;;;;;11.73;2.13;;;1.40;99.90;;;;;;5036127;28;20507;-67
2022/01/06 09:37:45;;;;;;;12.60;2.28;;;1.50;99.90;;;;;;5044489;28;20051;-67
2022/01/06 09:40:11;;;;;;;18.00;3.17;;;1.60;99.90;;;;;;5044023;28;20037;-66
2022/01/06 09:42:40;;;;;;;24.80;2.92;;;1.70;99.90;;;;;;5030400;28;20043;-67
2022/01/06 09:45:05;;;;;;;14.27;2.58;;;1.70;99.90;;;;;;5029670;28;20037;-68
2022/01/06 09:47:31;;;;;;;15.82;2.25;;;1.80;99.90;;;;;;5037606;28;20326;-68
2022/01/06 09:49:57;;;;;;;13.80;2.50;;;1.80;99.90;;;;;;5030538;28;20461;-68
2022/01/06 09:52:23;;;;;;;13.70;2.58;;;2.00;99.90;;;;;;5049206;28;20049;-69
2022/01/06 09:54:49;;;;;;;10.57;2.78;;;2.10;99.90;;;;;;5046017;28;20083;-68
2022/01/06 09:57:15;;;;;;;12.90;2.40;;;2.10;99.90;;;;;;5040821;28;20045;-68
2022/01/06 09:59:44;;;;;;;19.42;2.95;;;2.30;99.90;;;;;;5018464;28;20128;-69
2022/01/06 10:02:16;;;;;;;15.25;2.90;;;2.20;99.90;;;;;;5049291;28;20048;-68
2022/01/06 10:04:43;;;;;;;16.85;2.55;;;2.20;99.90;;;;;;5049651;28;20041;-69
2022/01/06 10:07:10;;;;;;;13.23;2.33;;;2.20;99.90;;;;;;5034294;28;20357;-68
2022/01/06 10:09:37;;;;;;;9.52;2.20;;;2.20;99.90;;;;;;5050264;28;20400;-68
2022/01/06 10:12:08;;;;;;;11.73;2.70;;;2.20;99.90;;;;;;5040917;28;20180;-68
2022/01/06 10:14:41;;;;;;;15.63;2.60;;;2.20;99.90;;;;;;5030438;28;20076;-68
2022/01/06 10:17:07;;;;;;;16.38;2.88;;;2.20;99.90;;;;;;5028066;28;20093;-68
2022/01/06 10:19:42;;;;;;;15.05;3.47;;;2.20;99.90;;;;;;5047472;28;20538;-68
2022/01/06 10:22:25;;;;;;;10.98;2.65;;;2.20;99.90;;;;;;5038709;28;20151;-68
2022/01/06 10:24:51;;;;;;;18.80;3.45;;;2.20;99.90;;;;;;5023833;28;20040;-68
2022/01/06 10:27:19;;;;;;;11.65;2.55;;;2.20;99.90;;;;;;5040549;28;20029;-69
2022/01/06 10:29:50;;;;;;;16.40;3.28;;;2.30;99.90;;;;;;5041372;28;20049;-68
2022/01/06 10:32:18;;;;;;;14.88;3.38;;;2.40;99.90;;;;;;5034973;28;20041;-71
2022/01/06 10:34:49;;;;;;;11.20;2.58;;;2.40;99.90;;;;;;5036685;28;20068;-68
2022/01/06 10:37:40;;;;;;;14.45;3.15;;;2.40;99.90;;;;;;5029158;28;20057;-68
2022/01/06 10:40:16;;;;;;;19.42;3.42;;;2.50;99.90;;;;;;5043720;28;20049;-68
2022/01/06 10:42:46;;;;;;;14.23;4.20;;;2.60;99.90;;;;;;5035915;28;20083;-69
2022/01/06 10:45:15;;;;;;;13.65;2.75;;;2.60;99.90;;;;;;5039195;28;20080;-69
2022/01/06 10:47:50;;;;;;;17.73;2.85;;;2.80;99.90;;;;;;5036241;28;20037;-69
2022/01/06 10:50:35;;;;;;;15.45;2.78;;;2.90;99.90;;;;;;5047350;28;20079;-70
2022/01/06 10:53:03;;;;;;;20.73;2.88;;;3.10;99.90;;;;;;5045043;28;20618;-68
2022/01/06 10:55:41;;;;;;;12.57;3.58;;;3.20;99.90;;;;;;5050292;28;20048;-69
2022/01/06 10:58:09;;;;;;;14.82;3.22;;;3.40;99.90;;;;;;5045802;28;20388;-68
2022/01/06 11:00:56;;;;;;;17.23;2.50;;;3.40;99.90;;;;;;5031092;28;20041;-69
2022/01/06 11:03:24;;;;;;;20.50;3.70;;;3.40;99.90;;;;;;5010150;28;20091;-69
2022/01/06 11:05:52;;;;;;;16.20;3.30;;;3.40;99.90;;;;;;5038548;28;20405;-68
2022/01/06 11:08:21;;;;;;;11.15;3.17;;;3.50;99.90;;;;;;5042419;28;20042;-69
2022/01/06 11:13:32;;;;;;;10.10;2.47;;;3.60;99.90;;;;;;5028263;28;20077;-68
2022/01/06 11:15:58;;;;;;;18.23;3.25;;;3.60;99.90;;;;;;5031041;28;20037;-68
2022/01/06 11:18:24;;;;;;;10.57;2.95;;;3.70;99.90;;;;;;5028923;28;20045;-69
2022/01/06 11:20:51;;;;;;;11.10;2.38;;;3.70;99.90;;;;;;5034035;28;20036;-68
2022/01/06 11:23:21;;;;;;;15.98;3.10;;;3.80;99.90;;;;;;5049929;28;20045;-70
2022/01/06 11:25:47;;;;;;;14.00;3.03;;;3.90;99.90;;;;;;5047571;28;20056;-69
2022/01/06 11:28:13;;;;;;;16.02;3.05;;;4.00;99.90;;;;;;5032667;28;20045;-69
2022/01/06 11:30:45;;;;;;;19.50;3.05;;;4.10;99.90;;;;;;5041041;28;20065;-70
2022/01/06 11:33:12;;;;;;;14.20;3.35;;;4.10;99.90;;;;;;5046371;28;20036;-69
2022/01/06 11:35:53;;;;;;;12.00;2.45;;;4.20;99.90;;;;;;5031540;28;20046;-69
2022/01/06 11:38:20;;;;;;;18.10;2.60;;;4.30;99.90;;;;;;5029114;28;20052;-69
2022/01/06 11:40:50;;;;;;;19.73;2.97;;;4.30;99.90;;;;;;5034553;28;20037;-69
2022/01/06 11:43:17;;;;;;;14.50;2.90;;;4.40;99.90;;;;;;5036338;28;20049;-68
2022/01/06 11:45:43;;;;;;;17.27;2.60;;;4.50;99.90;;;;;;5042340;28;20049;-68
2022/01/06 11:48:14;;;;;;;22.38;3.42;;;4.50;99.90;;;;;;5044598;28;20040;-69
2022/01/06 11:50:45;;;;;;;14.98;2.35;;;4.60;99.90;;;;;;5048011;28;20044;-70
2022/01/06 11:53:11;;;;;;;17.55;2.88;;;4.60;99.90;;;;;;5032722;28;20037;-70
2022/01/06 11:55:39;;;;;;;37.53;9.15;;;4.70;99.90;;;;;;5038927;28;20150;-70
2022/01/06 11:58:12;;;;;;;59.80;16.90;;;4.60;99.90;;;;;;5036888;28;20048;-70
2022/01/06 12:00:42;;;;;;;105.80;28.17;;;4.70;99.90;;;;;;5049643;28;20049;-70
2022/01/06 12:03:10;;;;;;;50.47;14.32;;;4.70;99.90;;;;;;5035089;28;20044;-69
2022/01/06 12:05:44;;;;;;;21.98;8.60;;;4.90;99.90;;;;;;5010423;28;20034;-71
2022/01/06 12:08:11;;;;;;;43.67;19.23;;;4.90;99.90;;;;;;5040899;28;20143;-70
2022/01/06 12:10:51;;;;;;;42.10;24.23;;;4.90;99.90;;;;;;5036211;28;20104;-70
2022/01/06 12:13:18;;;;;;;36.92;20.10;;;4.90;99.90;;;;;;5045996;28;20076;-70
2022/01/06 12:15:55;;;;;;;25.77;12.15;;;4.90;99.90;;;;;;5038387;28;20474;-69
2022/01/06 12:18:20;;;;;;;24.80;15.10;;;5.00;99.90;;;;;;5038155;28;20041;-69
2022/01/06 12:20:47;;;;;;;23.40;14.68;;;5.10;99.90;;;;;;5010497;28;20095;-70
2022/01/06 12:23:13;;;;;;;16.90;7.28;;;5.10;99.90;;;;;;5037412;28;20053;-69
2022/01/06 12:25:39;;;;;;;16.80;4.97;;;5.10;99.90;;;;;;5028095;28;20072;-71
2022/01/06 12:28:09;;;;;;;19.98;6.80;;;5.20;99.90;;;;;;5028344;28;20041;-70
2022/01/06 12:30:38;;;;;;;20.35;5.72;;;5.20;99.90;;;;;;5015059;28;20042;-69
2022/01/06 12:33:08;;;;;;;18.08;6.70;;;5.20;99.90;;;;;;5024687;28;20052;-72
2022/01/06 12:35:40;;;;;;;9.35;3.42;;;5.30;99.90;;;;;;5047836;28;20049;-71
2022/01/06 12:38:06;;;;;;;13.32;3.55;;;5.30;99.90;;;;;;5040635;28;20037;-70
2022/01/06 12:40:41;;;;;;;9.65;2.88;;;5.30;99.90;;;;;;5016427;28;20044;-70
2022/01/06 12:43:21;;;;;;;16.38;6.50;;;5.30;99.90;;;;;;5036391;28;20043;-70
2022/01/06 12:46:06;;;;;;;15.82;6.40;;;5.30;99.90;;;;;;5035103;28;20371;-70
2022/01/06 12:48:41;;;;;;;19.00;5.80;;;5.30;99.90;;;;;;5039064;28;20047;-70
2022/01/06 12:51:09;;;;;;;22.05;5.32;;;5.30;99.90;;;;;;5029400;28;20033;-71
2022/01/06 12:53:39;;;;;;;15.90;5.43;;;5.40;99.90;;;;;;5046414;28;20033;-70
2022/01/06 12:56:05;;;;;;;17.25;2.85;;;5.30;99.90;;;;;;5038727;28;20080;-69